createdAt,value
2022-08-04T00:02:11.447Z,2.80
2022-08-04T00:04:46.392Z,2.80
2022-08-04T00:07:44.383Z,3.00
2022-08-04T00:10:11.341Z,2.67
2022-08-04T00:12:45.345Z,2.40
2022-08-04T00:15:16.840Z,2.60
2022-08-04T00:17:50.422Z,2.50
2022-08-04T00:20:20.375Z,2.40
2022-08-04T00:22:53.180Z,2.60
2022-08-04T00:25:21.058Z,2.70
2022-08-04T00:27:49.516Z,2.70
2022-08-04T00:30:17.314Z,2.60
2022-08-04T00:32:45.809Z,2.37
2022-08-04T00:35:15.508Z,2.60
2022-08-04T00:37:45.253Z,2.30
2022-08-04T00:40:24.865Z,2.60
2022-08-04T00:43:07.176Z,2.57
2022-08-04T00:46:15.626Z,2.50
2022-08-04T00:49:03.234Z,2.70
2022-08-04T00:51:43.933Z,2.30
2022-08-04T00:54:19.242Z,2.43
2022-08-04T00:57:04.125Z,2.40
2022-08-04T00:59:48.147Z,2.37
2022-08-04T01:02:25.155Z,2.20
2022-08-04T01:05:05.437Z,2.30
2022-08-04T01:07:50.656Z,2.17
2022-08-04T01:10:29.037Z,2.43
2022-08-04T01:13:15.062Z,2.50
2022-08-04T01:16:00.519Z,2.57
2022-08-04T01:18:35.003Z,2.57
2022-08-04T01:21:48.878Z,2.47
2022-08-04T01:24:39.771Z,2.27
2022-08-04T01:27:12.564Z,2.40
2022-08-04T01:29:50.243Z,2.27
2022-08-04T01:32:26.122Z,2.57
2022-08-04T01:35:01.868Z,2.47
2022-08-04T01:37:43.400Z,2.70
2022-08-04T01:40:15.086Z,2.60
2022-08-04T01:42:45.596Z,2.50
2022-08-04T01:45:16.652Z,2.10
2022-08-04T01:47:50.630Z,2.63
2022-08-04T01:50:18.633Z,2.63
2022-08-04T01:52:50.904Z,2.70
2022-08-04T01:55:20.033Z,2.60
2022-08-04T01:57:50.097Z,2.30
2022-08-04T02:00:22.096Z,2.53
2022-08-04T02:02:51.536Z,2.57
2022-08-04T02:05:21.488Z,2.50
2022-08-04T02:08:05.215Z,2.53
2022-08-04T02:10:48.544Z,2.37
2022-08-04T02:13:22.972Z,2.73
2022-08-04T02:16:02.578Z,2.40
2022-08-04T02:18:34.551Z,2.60
2022-08-04T02:21:03.159Z,2.50
2022-08-04T02:23:36.915Z,2.60
2022-08-04T02:26:06.293Z,2.70
2022-08-04T02:28:41.229Z,2.77
2022-08-04T02:31:28.842Z,2.80
2022-08-04T02:34:07.247Z,2.50
2022-08-04T02:36:38.386Z,2.20
2022-08-04T02:39:07.855Z,2.47
2022-08-04T02:41:36.649Z,2.40
2022-08-04T02:44:07.020Z,2.20
2022-08-04T02:46:37.905Z,2.37
2022-08-04T02:49:08.526Z,2.10
2022-08-04T02:51:37.944Z,2.30
2022-08-04T02:54:08.014Z,2.20
2022-08-04T02:56:38.726Z,2.37
2022-08-04T02:59:08.022Z,2.50
2022-08-04T03:01:38.083Z,2.33
2022-08-04T03:04:39.148Z,2.30
2022-08-04T03:07:36.227Z,2.37
2022-08-04T03:10:38.906Z,2.40
2022-08-04T03:13:57.883Z,2.40
2022-08-04T03:16:46.730Z,2.37
2022-08-04T03:19:39.966Z,2.30
2022-08-04T03:22:29.977Z,2.20
2022-08-04T03:25:57.054Z,2.20
2022-08-04T03:29:10.141Z,2.30
2022-08-04T03:32:13.823Z,2.20
2022-08-04T03:35:02.698Z,2.60
2022-08-04T03:37:59.632Z,2.40
2022-08-04T03:40:41.612Z,2.10
2022-08-04T03:43:59.262Z,2.30
2022-08-04T03:47:05.743Z,2.40
2022-08-04T03:50:05.267Z,2.30
2022-08-04T03:53:09.894Z,2.23
2022-08-04T03:56:23.402Z,2.10
2022-08-04T03:59:13.239Z,2.17
2022-08-04T04:02:08.626Z,2.17
2022-08-04T04:04:58.292Z,2.40
2022-08-04T04:08:01.842Z,2.40
2022-08-04T04:10:57.125Z,2.20
2022-08-04T04:13:52.165Z,2.40
2022-08-04T04:16:39.176Z,2.50
2022-08-04T04:19:26.166Z,3.00
2022-08-04T04:22:12.984Z,3.07
2022-08-04T04:24:57.351Z,3.10
2022-08-04T04:27:39.624Z,2.70
2022-08-04T04:30:10.031Z,2.50
2022-08-04T04:33:01.195Z,3.03
2022-08-04T04:35:36.573Z,2.60
2022-08-04T04:38:22.634Z,2.37
2022-08-04T04:41:05.148Z,2.50
2022-08-04T04:44:08.283Z,2.60
2022-08-04T04:46:44.073Z,2.80
2022-08-04T04:49:23.506Z,2.63
2022-08-04T04:51:54.958Z,2.30
2022-08-04T04:54:32.043Z,2.43
2022-08-04T04:57:08.437Z,2.60
2022-08-04T04:59:40.189Z,2.50
2022-08-04T05:02:45.162Z,2.47
2022-08-04T05:05:25.585Z,2.40
2022-08-04T05:08:44.659Z,2.73
2022-08-04T05:11:41.442Z,2.70
2022-08-04T05:14:36.439Z,2.67
2022-08-04T05:17:11.922Z,3.00
2022-08-04T05:19:56.485Z,2.97
2022-08-04T05:22:29.127Z,3.10
2022-08-04T05:25:03.981Z,2.80
2022-08-04T05:27:40.261Z,2.77
2022-08-04T05:30:11.817Z,2.73
2022-08-04T05:32:46.254Z,2.50
2022-08-04T05:35:53.051Z,2.70
2022-08-04T05:38:15.565Z,2.40
2022-08-04T05:40:44.805Z,2.73
2022-08-04T05:43:15.404Z,2.83
2022-08-04T05:45:48.303Z,2.80
2022-08-04T05:48:16.497Z,2.73
2022-08-04T05:50:46.313Z,2.50
2022-08-04T05:53:16.666Z,2.73
2022-08-04T05:55:57.500Z,2.53
2022-08-04T05:58:30.419Z,2.63
2022-08-04T06:01:00.583Z,2.57
2022-08-04T06:03:31.812Z,2.50
2022-08-04T06:06:01.040Z,2.50
2022-08-04T06:08:31.376Z,2.80
2022-08-04T06:11:04.964Z,2.50
2022-08-04T06:13:49.120Z,2.50
2022-08-04T06:16:29.372Z,2.43
2022-08-04T06:19:58.654Z,2.80
2022-08-04T06:21:54.479Z,2.47
2022-08-04T06:24:26.181Z,2.70
2022-08-04T06:26:55.009Z,2.60
2022-08-04T06:29:28.318Z,2.60
2022-08-04T06:32:30.316Z,2.40
2022-08-04T06:34:53.288Z,2.53
2022-08-04T06:37:41.281Z,2.53
2022-08-04T06:40:29.961Z,2.53
2022-08-04T06:43:00.691Z,2.50
2022-08-04T06:45:30.495Z,2.77
2022-08-04T06:48:00.601Z,2.70
2022-08-04T06:51:27.334Z,2.67
2022-08-04T06:53:18.369Z,2.60
2022-08-04T06:55:48.026Z,2.67
2022-08-04T06:58:17.470Z,2.70
2022-08-04T07:00:48.818Z,2.67
2022-08-04T07:03:19.076Z,2.57
2022-08-04T07:05:48.486Z,3.00
2022-08-04T07:08:17.569Z,2.70
2022-08-04T07:10:46.442Z,2.90
2022-08-04T07:13:14.771Z,2.40
2022-08-04T07:15:49.018Z,2.47
2022-08-04T07:18:17.283Z,2.70
2022-08-04T07:20:46.463Z,2.50
2022-08-04T07:23:19.637Z,2.73
2022-08-04T07:25:59.738Z,2.50
2022-08-04T07:28:42.041Z,3.00
2022-08-04T07:31:33.688Z,2.50
2022-08-04T07:34:17.345Z,3.03
2022-08-04T07:36:52.926Z,2.77
2022-08-04T07:39:28.150Z,2.80
2022-08-04T07:41:58.833Z,2.60
2022-08-04T07:44:27.985Z,2.70
2022-08-04T07:46:57.312Z,2.50
2022-08-04T07:49:56.061Z,2.43
2022-08-04T07:52:14.791Z,2.70
2022-08-04T07:54:43.437Z,2.40
2022-08-04T07:57:20.616Z,2.73
2022-08-04T07:59:59.228Z,2.50
2022-08-04T08:02:29.333Z,2.73
2022-08-04T08:04:57.408Z,2.50
2022-08-04T08:07:25.398Z,2.77
2022-08-04T08:09:53.330Z,2.90
2022-08-04T08:12:37.064Z,2.80
2022-08-04T08:15:13.302Z,2.37
2022-08-04T08:17:58.125Z,2.67
2022-08-04T08:20:30.540Z,2.90
2022-08-04T08:22:59.038Z,2.70
2022-08-04T08:25:27.012Z,2.73
2022-08-04T08:27:56.006Z,2.73
2022-08-04T08:30:24.947Z,2.60
2022-08-04T08:33:05.512Z,2.90
2022-08-04T08:35:39.824Z,2.70
2022-08-04T08:38:28.545Z,2.30
2022-08-04T08:41:07.634Z,2.70
2022-08-04T08:44:03.720Z,2.60
2022-08-04T08:46:56.404Z,2.50
2022-08-04T08:50:04.508Z,2.77
2022-08-04T08:53:07.709Z,2.77
2022-08-04T08:55:46.866Z,2.60
2022-08-04T08:58:45.805Z,2.40
2022-08-04T09:01:27.203Z,2.50
2022-08-04T09:04:46.805Z,2.63
2022-08-04T09:07:29.999Z,2.70
2022-08-04T09:10:13.293Z,2.50
2022-08-04T09:12:49.089Z,2.50
2022-08-04T09:15:23.538Z,2.00
2022-08-04T09:17:55.249Z,2.70
2022-08-04T09:20:32.111Z,2.50
2022-08-04T09:23:14.000Z,2.40
2022-08-04T09:25:52.975Z,2.60
2022-08-04T09:28:50.799Z,2.77
2022-08-04T09:31:16.174Z,2.30
2022-08-04T09:33:51.811Z,2.10
2022-08-04T09:36:29.501Z,2.10
2022-08-04T09:39:21.007Z,2.60
2022-08-04T09:42:02.671Z,2.10
2022-08-04T09:44:52.214Z,2.13
2022-08-04T09:47:39.487Z,2.53
2022-08-04T09:50:19.604Z,2.30
2022-08-04T09:52:54.554Z,2.43
2022-08-04T09:55:35.615Z,2.37
2022-08-04T09:58:09.983Z,2.10
2022-08-04T10:00:45.428Z,2.40
2022-08-04T10:03:19.835Z,2.17
2022-08-04T10:06:07.845Z,1.93
2022-08-04T10:09:01.462Z,2.30
2022-08-04T10:11:56.552Z,2.30
2022-08-04T10:14:40.233Z,1.90
2022-08-04T10:17:21.678Z,2.10
2022-08-04T10:20:02.536Z,2.17
2022-08-04T10:22:55.424Z,2.07
2022-08-04T10:26:03.598Z,2.10
2022-08-04T10:28:26.039Z,1.70
2022-08-04T10:31:00.411Z,2.10
2022-08-04T10:33:34.048Z,2.00
2022-08-04T10:36:07.658Z,2.00
2022-08-04T10:38:40.763Z,1.90
2022-08-04T10:41:13.751Z,2.00
2022-08-04T10:43:54.122Z,1.90
2022-08-04T10:46:28.217Z,2.10
2022-08-04T10:48:59.126Z,2.10
2022-08-04T10:51:31.170Z,2.20
2022-08-04T10:54:27.446Z,2.40
2022-08-04T10:57:00.018Z,2.37
2022-08-04T10:59:34.510Z,2.50
2022-08-04T11:02:28.144Z,2.27
2022-08-04T11:05:07.488Z,2.20
2022-08-04T11:07:39.288Z,2.30
2022-08-04T11:10:08.941Z,2.00
2022-08-04T11:12:39.542Z,2.20
2022-08-04T11:15:13.293Z,1.83
2022-08-04T11:17:48.091Z,2.10
2022-08-04T11:20:39.897Z,2.30
2022-08-04T11:23:10.817Z,2.10
2022-08-04T11:25:51.961Z,2.30
2022-08-04T11:28:32.377Z,2.03
2022-08-04T11:31:05.604Z,2.13
2022-08-04T11:33:42.477Z,2.03
2022-08-04T11:36:22.106Z,2.10
2022-08-04T11:38:57.910Z,2.17
2022-08-04T11:41:38.689Z,2.00
2022-08-04T11:44:12.584Z,2.30
2022-08-04T11:46:44.410Z,2.00
2022-08-04T11:49:27.510Z,2.20
2022-08-04T11:51:58.084Z,2.00
2022-08-04T11:54:25.988Z,2.10
2022-08-04T11:56:53.919Z,2.00
2022-08-04T11:59:25.182Z,2.30
2022-08-04T12:02:08.195Z,1.90
2022-08-04T12:04:48.035Z,2.17
2022-08-04T12:07:31.444Z,2.20
2022-08-04T12:10:10.589Z,2.10
2022-08-04T12:12:43.052Z,2.17
2022-08-04T12:15:19.728Z,2.23
2022-08-04T12:17:56.236Z,2.10
2022-08-04T12:20:35.564Z,2.27
2022-08-04T12:23:16.707Z,2.20
2022-08-04T12:25:48.845Z,2.57
2022-08-04T12:28:25.937Z,2.43
2022-08-04T12:31:04.371Z,2.10
2022-08-04T12:34:04.931Z,2.10
2022-08-04T12:36:36.809Z,2.30
2022-08-04T12:39:11.401Z,2.10
2022-08-04T12:41:42.790Z,2.10
2022-08-04T12:44:36.513Z,1.93
2022-08-04T12:47:36.889Z,2.10
2022-08-04T12:50:01.443Z,2.17
2022-08-04T12:55:29.657Z,2.13
2022-08-04T12:57:58.527Z,1.87
2022-08-04T13:00:39.672Z,2.00
2022-08-04T13:03:12.471Z,2.43
2022-08-04T13:05:42.131Z,2.00
2022-08-04T13:08:12.724Z,2.20
2022-08-04T13:10:42.374Z,2.23
2022-08-04T13:13:18.115Z,1.80
2022-08-04T13:15:57.509Z,2.00
2022-08-04T13:18:29.898Z,1.90
2022-08-04T13:21:19.411Z,1.93
2022-08-04T13:24:09.335Z,1.90
2022-08-04T13:26:54.489Z,1.70
2022-08-04T13:29:59.769Z,2.40
2022-08-04T13:32:20.243Z,1.90
2022-08-04T13:34:52.744Z,1.90
2022-08-04T13:37:26.291Z,1.90
2022-08-04T13:39:57.180Z,2.00
2022-08-04T13:42:27.343Z,1.90
2022-08-04T13:44:58.127Z,2.00
2022-08-04T13:47:30.121Z,2.23
2022-08-04T13:50:11.178Z,1.90
2022-08-04T13:52:40.798Z,2.23
2022-08-04T13:55:19.408Z,2.00
2022-08-04T13:57:53.972Z,2.00
2022-08-04T14:00:29.252Z,2.10
2022-08-04T14:03:02.471Z,2.30
2022-08-04T14:05:58.957Z,2.10
2022-08-04T14:08:25.877Z,2.00
2022-08-04T14:10:58.777Z,1.80
2022-08-04T14:13:41.387Z,2.07
2022-08-04T14:16:18.566Z,1.80
2022-08-04T14:18:46.807Z,1.87
2022-08-04T14:21:16.071Z,1.93
2022-08-04T14:23:49.691Z,2.10
2022-08-04T14:26:32.693Z,1.90
2022-08-04T14:29:26.372Z,2.20
2022-08-04T14:32:04.461Z,1.87
2022-08-04T14:34:41.487Z,1.80
2022-08-04T14:37:16.945Z,2.07
2022-08-04T14:40:08.984Z,1.90
2022-08-04T14:42:55.286Z,1.80
2022-08-04T14:45:32.678Z,1.90
2022-08-04T14:48:01.085Z,2.30
2022-08-04T14:50:38.154Z,1.60
2022-08-04T14:53:08.718Z,1.90
2022-08-04T14:55:37.326Z,1.90
2022-08-04T14:58:35.109Z,2.10
2022-08-04T15:00:58.170Z,1.60
2022-08-04T15:03:26.572Z,1.80
2022-08-04T15:06:02.267Z,1.87
2022-08-04T15:08:32.404Z,1.93
2022-08-04T15:11:03.011Z,1.90
2022-08-04T15:13:33.314Z,1.80
2022-08-04T15:16:07.518Z,2.00
2022-08-04T15:18:37.750Z,1.77
2022-08-04T15:21:07.824Z,1.87
2022-08-04T15:23:39.257Z,1.80
2022-08-04T15:26:13.799Z,2.13
2022-08-04T15:28:48.130Z,1.60
2022-08-04T15:32:03.979Z,1.87
2022-08-04T15:34:07.590Z,1.83
2022-08-04T15:36:56.881Z,1.77
2022-08-04T15:39:36.832Z,2.10
2022-08-04T15:42:20.850Z,1.87
2022-08-04T15:46:02.537Z,1.70
2022-08-04T15:48:33.017Z,1.70
2022-08-04T15:51:04.731Z,2.00
2022-08-04T15:54:03.311Z,1.77
2022-08-04T15:56:48.365Z,1.90
2022-08-04T16:00:00.376Z,1.90
2022-08-04T16:02:44.207Z,1.77
2022-08-04T16:05:34.427Z,1.93
2022-08-04T16:08:17.661Z,2.03
2022-08-04T16:10:48.073Z,1.80
2022-08-04T16:13:19.407Z,1.90
2022-08-04T16:15:53.457Z,1.70
2022-08-04T16:18:41.388Z,1.80
2022-08-04T16:21:19.996Z,1.90
2022-08-04T16:24:19.370Z,1.93
2022-08-04T16:26:57.920Z,2.00
2022-08-04T16:29:34.512Z,1.90
2022-08-04T16:32:18.772Z,1.83
2022-08-04T16:34:54.707Z,1.77
2022-08-04T16:37:25.958Z,1.80
2022-08-04T16:40:33.363Z,1.77
2022-08-04T16:43:05.394Z,2.07
2022-08-04T16:45:51.498Z,1.73
2022-08-04T16:48:20.819Z,1.70
2022-08-04T16:50:53.594Z,2.10
2022-08-04T16:54:02.762Z,1.97
2022-08-04T16:56:14.312Z,1.80
2022-08-04T16:58:50.145Z,2.10
2022-08-04T17:01:34.107Z,2.10
2022-08-04T17:04:06.302Z,1.90
2022-08-04T17:06:37.724Z,2.00
2022-08-04T17:09:07.759Z,1.83
2022-08-04T17:11:35.931Z,2.23
2022-08-04T17:14:06.040Z,1.70
2022-08-04T17:16:36.146Z,2.10
2022-08-04T17:19:06.580Z,2.50
2022-08-04T17:21:38.955Z,2.10
2022-08-04T17:24:16.258Z,2.10
2022-08-04T17:26:53.463Z,2.37
2022-08-04T17:29:42.908Z,1.97
2022-08-04T17:32:17.286Z,2.70
2022-08-04T17:34:49.151Z,2.90
2022-08-04T17:40:09.923Z,2.50
2022-08-04T17:42:40.378Z,3.43
2022-08-04T17:45:49.146Z,2.70
2022-08-04T17:48:00.316Z,2.83
2022-08-04T17:50:34.764Z,2.50
2022-08-04T17:53:11.778Z,2.33
2022-08-04T17:55:42.681Z,2.47
2022-08-04T17:58:20.884Z,2.37
2022-08-04T18:00:51.990Z,2.30
2022-08-04T18:03:29.205Z,2.20
2022-08-04T18:06:03.481Z,2.23
2022-08-04T18:08:38.622Z,2.40
2022-08-04T18:11:21.983Z,2.23
2022-08-04T18:13:57.101Z,2.00
2022-08-04T18:16:27.416Z,2.13
2022-08-04T18:19:11.279Z,2.43
2022-08-04T18:21:46.717Z,2.43
2022-08-04T18:24:35.384Z,2.10
2022-08-04T18:27:18.166Z,2.30
2022-08-04T18:30:14.869Z,2.33
2022-08-04T18:32:34.312Z,2.17
2022-08-04T18:35:05.374Z,2.00
2022-08-04T18:38:04.970Z,2.50
2022-08-04T18:40:34.303Z,2.37
2022-08-04T18:43:14.431Z,2.30
2022-08-04T18:45:51.275Z,2.77
2022-08-04T18:48:19.380Z,2.40
2022-08-04T18:51:10.327Z,2.50
2022-08-04T18:53:36.237Z,2.43
2022-08-04T18:56:15.258Z,2.30
2022-08-04T18:58:54.354Z,2.80
2022-08-04T19:01:29.538Z,3.70
2022-08-04T19:03:58.435Z,2.73
2022-08-04T19:06:27.619Z,3.00
2022-08-04T19:08:55.599Z,2.70
2022-08-04T19:11:38.843Z,2.60
2022-08-04T19:14:13.122Z,2.87
2022-08-04T19:16:45.839Z,2.83
2022-08-04T19:19:14.144Z,2.57
2022-08-04T19:22:00.033Z,2.77
2022-08-04T19:24:34.543Z,3.10
2022-08-04T19:27:06.431Z,3.10
2022-08-04T19:29:37.928Z,3.73
2022-08-04T19:32:14.559Z,4.13
2022-08-04T19:34:47.451Z,3.80
2022-08-04T19:37:57.816Z,3.10
2022-08-04T19:40:06.076Z,3.20
2022-08-04T19:42:35.232Z,8.07
2022-08-04T19:45:03.597Z,4.90
2022-08-04T19:48:16.952Z,3.30
2022-08-04T19:50:19.577Z,3.60
2022-08-04T19:52:51.939Z,3.30
2022-08-04T19:55:22.376Z,3.77
2022-08-04T19:57:53.199Z,3.40
2022-08-04T20:00:32.933Z,3.50
2022-08-04T20:03:02.685Z,3.67
2022-08-04T20:05:52.907Z,3.77
2022-08-04T20:08:18.805Z,4.27
2022-08-04T20:10:51.508Z,3.57
2022-08-04T20:13:21.492Z,3.60
2022-08-04T20:15:55.596Z,3.83
2022-08-04T20:18:36.433Z,3.50
2022-08-04T20:21:19.380Z,3.60
2022-08-04T20:23:52.051Z,3.67
2022-08-04T20:26:20.087Z,3.87
2022-08-04T20:28:52.057Z,3.90
2022-08-04T20:31:22.250Z,4.03
2022-08-04T20:33:54.911Z,4.00
2022-08-04T20:36:23.210Z,3.73
2022-08-04T20:38:52.902Z,3.70
2022-08-04T20:41:39.722Z,3.53
2022-08-04T20:44:18.747Z,3.77
2022-08-04T20:46:49.739Z,3.70
2022-08-04T20:49:18.857Z,3.93
2022-08-04T20:51:46.693Z,4.13
2022-08-04T20:54:23.017Z,3.93
2022-08-04T20:56:55.400Z,3.90
2022-08-04T20:59:24.633Z,4.23
2022-08-04T21:01:55.098Z,4.37
2022-08-04T21:04:45.269Z,3.63
2022-08-04T21:07:16.666Z,4.27
2022-08-04T21:09:51.034Z,4.50
2022-08-04T21:12:28.541Z,4.50
2022-08-04T21:18:04.651Z,4.10
2022-08-04T21:20:33.632Z,4.10
2022-08-04T21:23:03.640Z,4.13
2022-08-04T21:25:32.960Z,4.53
2022-08-04T21:28:10.840Z,4.27
2022-08-04T21:30:52.388Z,4.40
2022-08-04T21:33:21.006Z,4.07
2022-08-04T21:35:54.369Z,4.23
2022-08-04T21:38:27.926Z,4.07
2022-08-04T21:40:57.291Z,3.83
2022-08-04T21:43:28.530Z,4.27
2022-08-04T21:46:04.046Z,4.07
2022-08-04T21:48:32.889Z,3.90
2022-08-04T21:51:55.861Z,4.17
2022-08-04T21:54:03.015Z,3.63
2022-08-04T21:56:31.357Z,3.90
2022-08-04T21:58:59.839Z,3.97
2022-08-04T22:01:50.351Z,3.90
2022-08-04T22:04:18.715Z,3.80
2022-08-04T22:06:47.588Z,3.70
2022-08-04T22:09:21.976Z,3.60
2022-08-04T22:11:51.749Z,3.40
2022-08-04T22:14:21.821Z,3.50
2022-08-04T22:16:57.511Z,3.70
2022-08-04T22:22:26.157Z,3.60
2022-08-04T22:24:58.654Z,3.20
2022-08-04T22:27:47.238Z,3.50
2022-08-04T22:30:17.693Z,3.17
2022-08-04T22:32:47.683Z,3.30
2022-08-04T22:35:36.618Z,3.43
2022-08-04T22:38:06.273Z,3.40
2022-08-04T22:40:38.284Z,3.50
2022-08-04T22:43:31.357Z,3.40
2022-08-04T22:45:54.127Z,2.93
2022-08-04T22:48:23.442Z,2.87
2022-08-04T22:50:55.919Z,3.50
2022-08-04T22:53:24.116Z,3.10
2022-08-04T22:56:06.631Z,3.10
2022-08-04T22:58:35.953Z,3.10
2022-08-04T23:01:08.121Z,3.27
2022-08-04T23:03:38.434Z,3.90
2022-08-04T23:06:10.533Z,3.93
2022-08-04T23:08:43.019Z,3.77
2022-08-04T23:11:15.051Z,3.40
2022-08-04T23:13:42.929Z,3.47
2022-08-04T23:16:11.138Z,3.50
2022-08-04T23:18:42.343Z,3.40
2022-08-04T23:21:13.969Z,2.90
2022-08-04T23:23:47.671Z,3.10
2022-08-04T23:26:27.565Z,3.17
2022-08-04T23:28:56.889Z,3.47
2022-08-04T23:31:25.086Z,3.30
2022-08-04T23:34:12.091Z,3.40
2022-08-04T23:36:40.665Z,3.37
2022-08-04T23:39:08.608Z,3.40
2022-08-04T23:41:54.015Z,3.47
2022-08-04T23:44:27.036Z,3.50
2022-08-04T23:47:00.197Z,3.40
2022-08-04T23:49:43.887Z,3.40
2022-08-04T23:52:28.022Z,3.27
2022-08-04T23:54:59.428Z,3.33
2022-08-04T23:57:31.096Z,3.20
